sensor_id;sensor_type;location;lat;lon;timestamp;P1;durP1;ratioP1;P2;durP2;ratioP2
3066;SDS011;1544;48.834;9.194;2022-12-07T00:01:44;9.20;;;7.00;;
3066;SDS011;1544;48.834;9.194;2022-12-07T00:04:20;6.87;;;6.23;;
3066;SDS011;1544;48.834;9.194;2022-12-07T00:06:55;7.57;;;6.27;;
3066;SDS011;1544;48.834;9.194;2022-12-07T00:09:30;8.60;;;7.17;;
3066;SDS011;1544;48.834;9.194;2022-12-07T00:12:05;7.70;;;6.80;;
3066;SDS011;1544;48.834;9.194;2022-12-07T00:14:40;9.20;;;6.00;;
3066;SDS011;1544;48.834;9.194;2022-12-07T00:17:15;9.10;;;6.37;;
3066;SDS011;1544;48.834;9.194;2022-12-07T00:19:50;11.40;;;7.33;;
3066;SDS011;1544;48.834;9.194;2022-12-07T00:22:25;8.80;;;7.53;;
3066;SDS011;1544;48.834;9.194;2022-12-07T00:25:00;10.13;;;7.43;;
3066;SDS011;1544;48.834;9.194;2022-12-07T00:27:35;9.80;;;7.40;;
3066;SDS011;1544;48.834;9.194;2022-12-07T00:30:10;10.03;;;7.10;;
3066;SDS011;1544;48.834;9.194;2022-12-07T00:32:45;8.13;;;6.77;;
3066;SDS011;1544;48.834;9.194;2022-12-07T00:35:20;10.43;;;7.40;;
3066;SDS011;1544;48.834;9.194;2022-12-07T00:37:55;8.30;;;7.10;;
3066;SDS011;1544;48.834;9.194;2022-12-07T00:40:30;9.90;;;7.30;;
3066;SDS011;1544;48.834;9.194;2022-12-07T00:43:05;9.23;;;7.27;;
3066;SDS011;1544;48.834;9.194;2022-12-07T00:45:40;9.20;;;6.50;;
3066;SDS011;1544;48.834;9.194;2022-12-07T00:48:15;9.17;;;7.10;;
3066;SDS011;1544;48.834;9.194;2022-12-07T00:50:50;7.90;;;6.60;;
3066;SDS011;1544;48.834;9.194;2022-12-07T00:53:25;11.03;;;7.20;;
3066;SDS011;1544;48.834;9.194;2022-12-07T00:56:22;8.00;;;6.60;;
3066;SDS011;1544;48.834;9.194;2022-12-07T00:59:01;9.50;;;6.90;;
3066;SDS011;1544;48.834;9.194;2022-12-07T01:01:37;10.87;;;7.67;;
3066;SDS011;1544;48.834;9.194;2022-12-07T01:04:13;10.17;;;6.97;;
3066;SDS011;1544;48.834;9.194;2022-12-07T01:06:48;10.97;;;7.17;;
3066;SDS011;1544;48.834;9.194;2022-12-07T01:09:22;9.37;;;6.80;;
3066;SDS011;1544;48.834;9.194;2022-12-07T01:11:57;8.80;;;6.67;;
3066;SDS011;1544;48.834;9.194;2022-12-07T01:14:32;8.73;;;6.70;;
3066;SDS011;1544;48.834;9.194;2022-12-07T01:17:07;11.20;;;7.63;;
3066;SDS011;1544;48.834;9.194;2022-12-07T01:19:42;7.70;;;6.37;;
3066;SDS011;1544;48.834;9.194;2022-12-07T01:22:17;9.70;;;7.10;;
3066;SDS011;1544;48.834;9.194;2022-12-07T01:24:52;7.90;;;6.60;;
3066;SDS011;1544;48.834;9.194;2022-12-07T01:27:27;9.93;;;7.50;;
3066;SDS011;1544;48.834;9.194;2022-12-07T01:30:03;11.67;;;6.87;;
3066;SDS011;1544;48.834;9.194;2022-12-07T01:32:41;11.90;;;7.90;;
3066;SDS011;1544;48.834;9.194;2022-12-07T01:35:16;10.37;;;6.93;;
3066;SDS011;1544;48.834;9.194;2022-12-07T01:37:50;7.80;;;6.30;;
3066;SDS011;1544;48.834;9.194;2022-12-07T01:40:25;13.30;;;7.40;;
3066;SDS011;1544;48.834;9.194;2022-12-07T01:43:00;10.37;;;7.47;;
3066;SDS011;1544;48.834;9.194;2022-12-07T01:48:17;12.07;;;8.43;;
3066;SDS011;1544;48.834;9.194;2022-12-07T01:50:56;8.17;;;7.17;;
3066;SDS011;1544;48.834;9.194;2022-12-07T01:53:40;8.10;;;7.17;;
3066;SDS011;1544;48.834;9.194;2022-12-07T01:56:19;8.50;;;6.80;;
3066;SDS011;1544;48.834;9.194;2022-12-07T01:58:57;9.73;;;7.57;;
3066;SDS011;1544;48.834;9.194;2022-12-07T02:01:34;9.30;;;7.33;;
3066;SDS011;1544;48.834;9.194;2022-12-07T02:04:09;9.10;;;7.47;;
3066;SDS011;1544;48.834;9.194;2022-12-07T02:06:45;10.13;;;7.83;;
3066;SDS011;1544;48.834;9.194;2022-12-07T02:09:21;10.37;;;6.93;;
3066;SDS011;1544;48.834;9.194;2022-12-07T02:11:56;11.07;;;8.20;;
3066;SDS011;1544;48.834;9.194;2022-12-07T02:14:31;9.10;;;6.67;;
3066;SDS011;1544;48.834;9.194;2022-12-07T02:17:25;9.07;;;6.90;;
3066;SDS011;1544;48.834;9.194;2022-12-07T02:20:34;8.77;;;7.60;;
3066;SDS011;1544;48.834;9.194;2022-12-07T02:26:55;11.53;;;8.23;;
3066;SDS011;1544;48.834;9.194;2022-12-07T02:29:49;9.57;;;7.60;;
3066;SDS011;1544;48.834;9.194;2022-12-07T02:32:59;8.83;;;7.43;;
3066;SDS011;1544;48.834;9.194;2022-12-07T02:35:42;10.27;;;7.40;;
3066;SDS011;1544;48.834;9.194;2022-12-07T02:38:51;10.47;;;7.60;;
3066;SDS011;1544;48.834;9.194;2022-12-07T02:41:36;8.37;;;6.60;;
3066;SDS011;1544;48.834;9.194;2022-12-07T02:44:21;7.77;;;6.67;;
3066;SDS011;1544;48.834;9.194;2022-12-07T02:47:01;8.83;;;6.93;;
3066;SDS011;1544;48.834;9.194;2022-12-07T02:49:41;8.93;;;6.80;;
3066;SDS011;1544;48.834;9.194;2022-12-07T02:52:16;8.63;;;6.90;;
3066;SDS011;1544;48.834;9.194;2022-12-07T02:54:51;9.63;;;5.90;;
3066;SDS011;1544;48.834;9.194;2022-12-07T02:57:31;7.47;;;6.10;;
3066;SDS011;1544;48.834;9.194;2022-12-07T03:00:24;9.57;;;6.57;;
3066;SDS011;1544;48.834;9.194;2022-12-07T03:03:00;12.47;;;6.60;;
3066;SDS011;1544;48.834;9.194;2022-12-07T03:05:45;7.00;;;5.43;;
3066;SDS011;1544;48.834;9.194;2022-12-07T03:09:09;11.00;;;7.10;;
3066;SDS011;1544;48.834;9.194;2022-12-07T03:12:07;8.00;;;6.17;;
3066;SDS011;1544;48.834;9.194;2022-12-07T03:14:50;7.40;;;6.60;;
3066;SDS011;1544;48.834;9.194;2022-12-07T03:17:52;6.53;;;5.87;;
3066;SDS011;1544;48.834;9.194;2022-12-07T03:20:31;11.70;;;6.63;;
3066;SDS011;1544;48.834;9.194;2022-12-07T03:23:09;9.17;;;6.43;;
3066;SDS011;1544;48.834;9.194;2022-12-07T03:25:47;7.50;;;6.37;;
3066;SDS011;1544;48.834;9.194;2022-12-07T03:28:35;8.80;;;6.70;;
3066;SDS011;1544;48.834;9.194;2022-12-07T03:31:19;10.80;;;7.50;;
3066;SDS011;1544;48.834;9.194;2022-12-07T03:34:06;10.07;;;7.03;;
3066;SDS011;1544;48.834;9.194;2022-12-07T03:37:14;9.70;;;7.13;;
3066;SDS011;1544;48.834;9.194;2022-12-07T03:39:59;9.07;;;6.77;;
3066;SDS011;1544;48.834;9.194;2022-12-07T03:43:00;11.13;;;6.40;;
3066;SDS011;1544;48.834;9.194;2022-12-07T03:45:37;10.43;;;7.67;;
3066;SDS011;1544;48.834;9.194;2022-12-07T03:48:30;10.23;;;7.10;;
3066;SDS011;1544;48.834;9.194;2022-12-07T03:51:22;11.80;;;7.43;;
3066;SDS011;1544;48.834;9.194;2022-12-07T03:54:25;6.93;;;5.70;;
3066;SDS011;1544;48.834;9.194;2022-12-07T03:57:18;10.60;;;7.20;;
3066;SDS011;1544;48.834;9.194;2022-12-07T03:59:56;7.70;;;6.50;;
3066;SDS011;1544;48.834;9.194;2022-12-07T04:02:32;9.70;;;6.40;;
3066;SDS011;1544;48.834;9.194;2022-12-07T04:05:08;9.00;;;6.63;;
3066;SDS011;1544;48.834;9.194;2022-12-07T04:07:43;9.63;;;6.30;;
3066;SDS011;1544;48.834;9.194;2022-12-07T04:10:18;12.03;;;6.70;;
3066;SDS011;1544;48.834;9.194;2022-12-07T04:12:53;9.50;;;6.57;;
3066;SDS011;1544;48.834;9.194;2022-12-07T04:15:30;9.87;;;7.17;;
3066;SDS011;1544;48.834;9.194;2022-12-07T04:18:05;10.83;;;7.87;;
3066;SDS011;1544;48.834;9.194;2022-12-07T04:20:40;8.90;;;6.67;;
3066;SDS011;1544;48.834;9.194;2022-12-07T04:23:15;7.60;;;6.23;;
3066;SDS011;1544;48.834;9.194;2022-12-07T04:25:50;6.80;;;5.87;;
3066;SDS011;1544;48.834;9.194;2022-12-07T04:28:25;11.93;;;7.67;;
3066;SDS011;1544;48.834;9.194;2022-12-07T04:31:00;8.77;;;6.20;;
3066;SDS011;1544;48.834;9.194;2022-12-07T04:33:35;11.27;;;6.60;;
3066;SDS011;1544;48.834;9.194;2022-12-07T04:36:10;10.47;;;6.67;;
3066;SDS011;1544;48.834;9.194;2022-12-07T04:38:46;8.20;;;5.93;;
3066;SDS011;1544;48.834;9.194;2022-12-07T04:41:21;7.63;;;5.70;;
3066;SDS011;1544;48.834;9.194;2022-12-07T04:44:02;7.03;;;5.40;;
3066;SDS011;1544;48.834;9.194;2022-12-07T04:46:41;7.60;;;4.80;;
3066;SDS011;1544;48.834;9.194;2022-12-07T04:49:17;7.77;;;5.70;;
3066;SDS011;1544;48.834;9.194;2022-12-07T04:51:53;8.80;;;6.00;;
3066;SDS011;1544;48.834;9.194;2022-12-07T04:54:29;10.23;;;7.00;;
3066;SDS011;1544;48.834;9.194;2022-12-07T04:57:04;9.27;;;5.77;;
3066;SDS011;1544;48.834;9.194;2022-12-07T04:59:39;8.47;;;6.27;;
3066;SDS011;1544;48.834;9.194;2022-12-07T05:02:19;7.53;;;6.00;;
3066;SDS011;1544;48.834;9.194;2022-12-07T05:04:54;8.03;;;6.20;;
3066;SDS011;1544;48.834;9.194;2022-12-07T05:07:29;8.40;;;5.50;;
3066;SDS011;1544;48.834;9.194;2022-12-07T05:10:04;9.20;;;5.93;;
3066;SDS011;1544;48.834;9.194;2022-12-07T05:12:40;9.60;;;7.13;;
3066;SDS011;1544;48.834;9.194;2022-12-07T05:15:15;10.47;;;6.83;;
3066;SDS011;1544;48.834;9.194;2022-12-07T05:17:50;8.43;;;6.10;;
3066;SDS011;1544;48.834;9.194;2022-12-07T05:20:26;9.37;;;6.60;;
3066;SDS011;1544;48.834;9.194;2022-12-07T05:23:01;8.40;;;6.03;;
3066;SDS011;1544;48.834;9.194;2022-12-07T05:25:37;9.93;;;7.50;;
3066;SDS011;1544;48.834;9.194;2022-12-07T05:28:12;7.90;;;6.23;;
3066;SDS011;1544;48.834;9.194;2022-12-07T05:30:47;9.10;;;6.20;;
3066;SDS011;1544;48.834;9.194;2022-12-07T05:33:22;9.57;;;6.70;;
3066;SDS011;1544;48.834;9.194;2022-12-07T05:35:57;9.83;;;7.10;;
3066;SDS011;1544;48.834;9.194;2022-12-07T05:38:32;9.60;;;6.33;;
3066;SDS011;1544;48.834;9.194;2022-12-07T05:41:07;12.57;;;7.37;;
3066;SDS011;1544;48.834;9.194;2022-12-07T05:44:06;8.00;;;6.30;;
3066;SDS011;1544;48.834;9.194;2022-12-07T05:46:41;7.53;;;6.30;;
3066;SDS011;1544;48.834;9.194;2022-12-07T05:49:16;11.60;;;8.10;;
3066;SDS011;1544;48.834;9.194;2022-12-07T05:51:51;8.57;;;6.80;;
3066;SDS011;1544;48.834;9.194;2022-12-07T05:54:26;10.10;;;7.07;;
3066;SDS011;1544;48.834;9.194;2022-12-07T05:57:01;8.87;;;6.60;;
3066;SDS011;1544;48.834;9.194;2022-12-07T05:59:36;8.33;;;6.40;;
3066;SDS011;1544;48.834;9.194;2022-12-07T06:02:11;12.20;;;7.10;;
3066;SDS011;1544;48.834;9.194;2022-12-07T06:04:49;8.70;;;6.90;;
3066;SDS011;1544;48.834;9.194;2022-12-07T06:07:24;10.50;;;7.37;;
3066;SDS011;1544;48.834;9.194;2022-12-07T06:09:59;9.83;;;7.40;;
3066;SDS011;1544;48.834;9.194;2022-12-07T06:12:35;7.77;;;6.20;;
3066;SDS011;1544;48.834;9.194;2022-12-07T06:15:12;8.20;;;6.20;;
3066;SDS011;1544;48.834;9.194;2022-12-07T06:17:47;9.03;;;6.40;;
3066;SDS011;1544;48.834;9.194;2022-12-07T06:20:22;10.93;;;7.10;;
3066;SDS011;1544;48.834;9.194;2022-12-07T06:22:57;11.27;;;6.80;;
3066;SDS011;1544;48.834;9.194;2022-12-07T06:25:32;9.37;;;6.77;;
3066;SDS011;1544;48.834;9.194;2022-12-07T06:28:07;11.13;;;7.97;;
3066;SDS011;1544;48.834;9.194;2022-12-07T06:30:43;14.57;;;8.97;;
3066;SDS011;1544;48.834;9.194;2022-12-07T06:33:18;8.23;;;7.10;;
3066;SDS011;1544;48.834;9.194;2022-12-07T06:35:53;9.40;;;6.23;;
3066;SDS011;1544;48.834;9.194;2022-12-07T06:38:30;8.90;;;5.53;;
3066;SDS011;1544;48.834;9.194;2022-12-07T06:41:07;7.70;;;6.60;;
3066;SDS011;1544;48.834;9.194;2022-12-07T06:43:43;7.80;;;5.93;;
3066;SDS011;1544;48.834;9.194;2022-12-07T06:46:18;9.30;;;6.43;;
3066;SDS011;1544;48.834;9.194;2022-12-07T06:48:53;10.03;;;8.50;;
3066;SDS011;1544;48.834;9.194;2022-12-07T06:51:28;14.03;;;10.73;;
3066;SDS011;1544;48.834;9.194;2022-12-07T06:54:03;7.20;;;6.50;;
3066;SDS011;1544;48.834;9.194;2022-12-07T06:56:38;5.73;;;5.13;;
3066;SDS011;1544;48.834;9.194;2022-12-07T06:59:14;7.47;;;4.43;;
3066;SDS011;1544;48.834;9.194;2022-12-07T07:01:49;7.20;;;4.93;;
3066;SDS011;1544;48.834;9.194;2022-12-07T07:04:24;7.80;;;4.50;;
3066;SDS011;1544;48.834;9.194;2022-12-07T07:06:59;6.33;;;4.60;;
3066;SDS011;1544;48.834;9.194;2022-12-07T07:09:34;6.17;;;4.60;;
3066;SDS011;1544;48.834;9.194;2022-12-07T07:12:09;5.90;;;4.97;;
3066;SDS011;1544;48.834;9.194;2022-12-07T07:14:44;5.80;;;5.17;;
3066;SDS011;1544;48.834;9.194;2022-12-07T07:17:19;7.03;;;4.50;;
3066;SDS011;1544;48.834;9.194;2022-12-07T07:19:54;6.80;;;4.50;;
3066;SDS011;1544;48.834;9.194;2022-12-07T07:22:29;5.50;;;3.90;;
3066;SDS011;1544;48.834;9.194;2022-12-07T07:25:04;6.47;;;4.93;;
3066;SDS011;1544;48.834;9.194;2022-12-07T07:27:40;6.43;;;4.27;;
3066;SDS011;1544;48.834;9.194;2022-12-07T07:30:15;6.50;;;4.10;;
3066;SDS011;1544;48.834;9.194;2022-12-07T07:32:50;4.87;;;4.10;;
3066;SDS011;1544;48.834;9.194;2022-12-07T07:35:25;5.10;;;3.80;;
3066;SDS011;1544;48.834;9.194;2022-12-07T07:38:02;4.70;;;3.67;;
3066;SDS011;1544;48.834;9.194;2022-12-07T07:40:37;3.80;;;3.50;;
3066;SDS011;1544;48.834;9.194;2022-12-07T07:43:12;4.73;;;3.47;;
3066;SDS011;1544;48.834;9.194;2022-12-07T07:45:47;4.20;;;3.80;;
3066;SDS011;1544;48.834;9.194;2022-12-07T07:48:22;5.37;;;3.60;;
3066;SDS011;1544;48.834;9.194;2022-12-07T07:50:59;4.50;;;3.80;;
3066;SDS011;1544;48.834;9.194;2022-12-07T07:53:34;5.43;;;3.67;;
3066;SDS011;1544;48.834;9.194;2022-12-07T07:56:09;3.97;;;3.33;;
3066;SDS011;1544;48.834;9.194;2022-12-07T07:58:44;4.87;;;3.20;;
3066;SDS011;1544;48.834;9.194;2022-12-07T08:01:19;3.50;;;3.20;;
3066;SDS011;1544;48.834;9.194;2022-12-07T08:03:54;3.90;;;3.50;;
3066;SDS011;1544;48.834;9.194;2022-12-07T08:06:29;3.70;;;3.00;;
3066;SDS011;1544;48.834;9.194;2022-12-07T08:09:05;3.30;;;3.00;;
3066;SDS011;1544;48.834;9.194;2022-12-07T08:11:41;4.30;;;3.80;;
3066;SDS011;1544;48.834;9.194;2022-12-07T08:14:16;9.43;;;6.00;;
3066;SDS011;1544;48.834;9.194;2022-12-07T08:16:50;8.83;;;6.10;;
3066;SDS011;1544;48.834;9.194;2022-12-07T08:19:25;5.77;;;4.10;;
3066;SDS011;1544;48.834;9.194;2022-12-07T08:22:00;5.27;;;3.60;;
3066;SDS011;1544;48.834;9.194;2022-12-07T08:24:36;4.63;;;3.20;;
3066;SDS011;1544;48.834;9.194;2022-12-07T08:27:11;5.97;;;3.33;;
3066;SDS011;1544;48.834;9.194;2022-12-07T08:29:46;3.33;;;3.03;;
3066;SDS011;1544;48.834;9.194;2022-12-07T08:32:21;4.07;;;3.67;;
3066;SDS011;1544;48.834;9.194;2022-12-07T08:34:57;4.73;;;2.90;;
3066;SDS011;1544;48.834;9.194;2022-12-07T08:37:32;2.93;;;2.47;;
3066;SDS011;1544;48.834;9.194;2022-12-07T08:40:07;5.30;;;3.20;;
3066;SDS011;1544;48.834;9.194;2022-12-07T08:42:48;3.47;;;3.03;;
3066;SDS011;1544;48.834;9.194;2022-12-07T08:45:24;6.23;;;3.93;;
3066;SDS011;1544;48.834;9.194;2022-12-07T08:50:44;3.93;;;3.63;;
3066;SDS011;1544;48.834;9.194;2022-12-07T08:53:23;3.90;;;3.20;;
3066;SDS011;1544;48.834;9.194;2022-12-07T08:55:58;5.47;;;4.43;;
3066;SDS011;1544;48.834;9.194;2022-12-07T08:58:33;7.00;;;5.40;;
3066;SDS011;1544;48.834;9.194;2022-12-07T09:01:10;5.67;;;4.23;;
3066;SDS011;1544;48.834;9.194;2022-12-07T09:03:45;3.40;;;3.03;;
3066;SDS011;1544;48.834;9.194;2022-12-07T09:06:20;5.90;;;3.50;;
3066;SDS011;1544;48.834;9.194;2022-12-07T09:08:57;4.00;;;3.37;;
3066;SDS011;1544;48.834;9.194;2022-12-07T09:11:34;5.83;;;4.97;;
3066;SDS011;1544;48.834;9.194;2022-12-07T09:14:09;3.90;;;3.10;;
3066;SDS011;1544;48.834;9.194;2022-12-07T09:16:44;3.40;;;3.07;;
3066;SDS011;1544;48.834;9.194;2022-12-07T09:19:19;4.20;;;2.70;;
3066;SDS011;1544;48.834;9.194;2022-12-07T09:21:54;3.20;;;2.90;;
3066;SDS011;1544;48.834;9.194;2022-12-07T09:24:29;3.93;;;3.27;;
3066;SDS011;1544;48.834;9.194;2022-12-07T09:27:07;2.90;;;2.60;;
3066;SDS011;1544;48.834;9.194;2022-12-07T09:29:42;4.10;;;2.77;;
3066;SDS011;1544;48.834;9.194;2022-12-07T09:32:17;4.60;;;3.07;;
3066;SDS011;1544;48.834;9.194;2022-12-07T09:34:53;3.30;;;3.00;;
3066;SDS011;1544;48.834;9.194;2022-12-07T09:37:28;3.40;;;2.70;;
3066;SDS011;1544;48.834;9.194;2022-12-07T09:40:04;4.80;;;2.67;;
3066;SDS011;1544;48.834;9.194;2022-12-07T09:42:44;4.10;;;2.93;;
3066;SDS011;1544;48.834;9.194;2022-12-07T09:45:25;5.93;;;3.17;;
3066;SDS011;1544;48.834;9.194;2022-12-07T09:48:13;2.60;;;2.27;;
3066;SDS011;1544;48.834;9.194;2022-12-07T09:50:54;4.37;;;3.33;;
3066;SDS011;1544;48.834;9.194;2022-12-07T09:53:33;3.40;;;2.50;;
3066;SDS011;1544;48.834;9.194;2022-12-07T09:56:15;6.40;;;2.80;;
3066;SDS011;1544;48.834;9.194;2022-12-07T09:58:54;2.70;;;2.20;;
3066;SDS011;1544;48.834;9.194;2022-12-07T10:01:37;2.57;;;2.37;;
3066;SDS011;1544;48.834;9.194;2022-12-07T10:04:18;8.00;;;3.33;;
3066;SDS011;1544;48.834;9.194;2022-12-07T10:06:57;3.00;;;2.70;;
3066;SDS011;1544;48.834;9.194;2022-12-07T10:09:32;2.73;;;2.47;;
3066;SDS011;1544;48.834;9.194;2022-12-07T10:12:10;2.60;;;2.40;;
3066;SDS011;1544;48.834;9.194;2022-12-07T10:14:57;2.93;;;2.50;;
3066;SDS011;1544;48.834;9.194;2022-12-07T10:17:47;3.07;;;2.47;;
3066;SDS011;1544;48.834;9.194;2022-12-07T10:20:25;4.00;;;2.60;;
3066;SDS011;1544;48.834;9.194;2022-12-07T10:23:02;2.90;;;2.67;;
3066;SDS011;1544;48.834;9.194;2022-12-07T10:25:42;6.17;;;3.10;;
3066;SDS011;1544;48.834;9.194;2022-12-07T10:28:18;3.57;;;3.10;;
3066;SDS011;1544;48.834;9.194;2022-12-07T10:30:57;4.03;;;3.10;;
3066;SDS011;1544;48.834;9.194;2022-12-07T10:33:53;4.53;;;2.83;;
3066;SDS011;1544;48.834;9.194;2022-12-07T10:36:37;3.30;;;3.00;;
3066;SDS011;1544;48.834;9.194;2022-12-07T10:39:14;4.27;;;2.20;;
3066;SDS011;1544;48.834;9.194;2022-12-07T10:42:01;2.97;;;2.40;;
3066;SDS011;1544;48.834;9.194;2022-12-07T10:44:37;2.20;;;2.00;;
3066;SDS011;1544;48.834;9.194;2022-12-07T10:47:36;2.33;;;1.90;;
3066;SDS011;1544;48.834;9.194;2022-12-07T10:59:34;3.83;;;1.87;;
3066;SDS011;1544;48.834;9.194;2022-12-07T11:05:31;2.70;;;2.03;;
3066;SDS011;1544;48.834;9.194;2022-12-07T11:08:21;2.70;;;2.10;;
3066;SDS011;1544;48.834;9.194;2022-12-07T11:25:56;4.57;;;4.17;;
3066;SDS011;1544;48.834;9.194;2022-12-07T11:34:36;2.23;;;1.83;;
3066;SDS011;1544;48.834;9.194;2022-12-07T11:37:56;8.77;;;5.93;;
3066;SDS011;1544;48.834;9.194;2022-12-07T11:40:36;4.00;;;3.40;;
3066;SDS011;1544;48.834;9.194;2022-12-07T11:46:07;4.30;;;3.90;;
3066;SDS011;1544;48.834;9.194;2022-12-07T11:48:47;9.23;;;6.90;;
3066;SDS011;1544;48.834;9.194;2022-12-07T11:51:30;5.93;;;5.30;;
3066;SDS011;1544;48.834;9.194;2022-12-07T11:54:14;6.40;;;5.70;;
3066;SDS011;1544;48.834;9.194;2022-12-07T11:56:56;6.90;;;6.23;;
3066;SDS011;1544;48.834;9.194;2022-12-07T11:59:39;9.43;;;7.30;;
3066;SDS011;1544;48.834;9.194;2022-12-07T12:02:26;7.47;;;5.40;;
3066;SDS011;1544;48.834;9.194;2022-12-07T12:08:13;6.77;;;4.73;;
3066;SDS011;1544;48.834;9.194;2022-12-07T12:26:16;7.27;;;4.10;;
3066;SDS011;1544;48.834;9.194;2022-12-07T12:31:36;9.50;;;5.57;;
3066;SDS011;1544;48.834;9.194;2022-12-07T12:34:31;6.27;;;5.23;;
3066;SDS011;1544;48.834;9.194;2022-12-07T12:42:50;6.60;;;5.33;;
3066;SDS011;1544;48.834;9.194;2022-12-07T12:45:29;4.97;;;4.47;;
3066;SDS011;1544;48.834;9.194;2022-12-07T12:48:28;6.47;;;4.40;;
3066;SDS011;1544;48.834;9.194;2022-12-07T13:02:30;7.63;;;5.20;;
3066;SDS011;1544;48.834;9.194;2022-12-07T13:10:42;8.90;;;6.67;;
3066;SDS011;1544;48.834;9.194;2022-12-07T13:18:44;8.93;;;6.73;;
3066;SDS011;1544;48.834;9.194;2022-12-07T13:23:55;8.07;;;6.37;;
3066;SDS011;1544;48.834;9.194;2022-12-07T13:26:35;10.63;;;6.97;;
3066;SDS011;1544;48.834;9.194;2022-12-07T13:29:17;8.67;;;7.00;;
3066;SDS011;1544;48.834;9.194;2022-12-07T13:31:55;11.93;;;7.60;;
3066;SDS011;1544;48.834;9.194;2022-12-07T13:34:37;13.33;;;8.07;;
3066;SDS011;1544;48.834;9.194;2022-12-07T13:40:19;6.60;;;5.67;;
3066;SDS011;1544;48.834;9.194;2022-12-07T13:42:57;12.63;;;8.67;;
3066;SDS011;1544;48.834;9.194;2022-12-07T13:45:38;9.90;;;7.50;;
3066;SDS011;1544;48.834;9.194;2022-12-07T13:48:29;7.93;;;6.07;;
3066;SDS011;1544;48.834;9.194;2022-12-07T13:51:18;11.27;;;8.10;;
3066;SDS011;1544;48.834;9.194;2022-12-07T13:54:00;10.47;;;7.90;;
3066;SDS011;1544;48.834;9.194;2022-12-07T13:56:47;10.20;;;6.50;;
3066;SDS011;1544;48.834;9.194;2022-12-07T13:59:25;8.37;;;5.77;;
3066;SDS011;1544;48.834;9.194;2022-12-07T14:02:01;7.90;;;6.10;;
3066;SDS011;1544;48.834;9.194;2022-12-07T14:04:36;8.50;;;5.87;;
3066;SDS011;1544;48.834;9.194;2022-12-07T14:07:25;7.53;;;4.97;;
3066;SDS011;1544;48.834;9.194;2022-12-07T14:10:04;7.93;;;5.20;;
3066;SDS011;1544;48.834;9.194;2022-12-07T14:12:41;6.87;;;5.37;;
3066;SDS011;1544;48.834;9.194;2022-12-07T14:15:21;11.73;;;7.00;;
3066;SDS011;1544;48.834;9.194;2022-12-07T14:18:00;7.87;;;5.70;;
3066;SDS011;1544;48.834;9.194;2022-12-07T14:20:40;7.43;;;5.87;;
3066;SDS011;1544;48.834;9.194;2022-12-07T14:23:23;6.50;;;5.53;;
3066;SDS011;1544;48.834;9.194;2022-12-07T14:26:13;7.53;;;6.47;;
3066;SDS011;1544;48.834;9.194;2022-12-07T14:29:18;9.47;;;6.30;;
3066;SDS011;1544;48.834;9.194;2022-12-07T14:32:38;8.83;;;5.57;;
3066;SDS011;1544;48.834;9.194;2022-12-07T14:35:09;6.77;;;5.20;;
3066;SDS011;1544;48.834;9.194;2022-12-07T14:37:48;7.03;;;5.97;;
3066;SDS011;1544;48.834;9.194;2022-12-07T14:40:24;7.70;;;5.27;;
3066;SDS011;1544;48.834;9.194;2022-12-07T14:43:04;8.13;;;5.40;;
3066;SDS011;1544;48.834;9.194;2022-12-07T14:45:44;8.70;;;6.60;;
3066;SDS011;1544;48.834;9.194;2022-12-07T14:48:20;8.13;;;7.00;;
3066;SDS011;1544;48.834;9.194;2022-12-07T14:51:15;6.70;;;5.83;;
3066;SDS011;1544;48.834;9.194;2022-12-07T14:54:13;6.77;;;5.73;;
3066;SDS011;1544;48.834;9.194;2022-12-07T14:56:52;6.10;;;5.40;;
3066;SDS011;1544;48.834;9.194;2022-12-07T14:59:27;7.97;;;5.00;;
3066;SDS011;1544;48.834;9.194;2022-12-07T15:02:02;8.90;;;5.70;;
3066;SDS011;1544;48.834;9.194;2022-12-07T15:04:38;9.43;;;5.70;;
3066;SDS011;1544;48.834;9.194;2022-12-07T15:07:20;9.50;;;6.23;;
3066;SDS011;1544;48.834;9.194;2022-12-07T15:09:55;10.80;;;6.47;;
3066;SDS011;1544;48.834;9.194;2022-12-07T15:12:30;10.50;;;7.00;;
3066;SDS011;1544;48.834;9.194;2022-12-07T15:15:05;12.07;;;8.27;;
3066;SDS011;1544;48.834;9.194;2022-12-07T15:17:40;11.47;;;7.60;;
3066;SDS011;1544;48.834;9.194;2022-12-07T15:20:15;9.13;;;7.00;;
3066;SDS011;1544;48.834;9.194;2022-12-07T15:22:51;11.30;;;6.97;;
3066;SDS011;1544;48.834;9.194;2022-12-07T15:25:26;9.37;;;7.10;;
3066;SDS011;1544;48.834;9.194;2022-12-07T15:28:01;9.20;;;6.33;;
3066;SDS011;1544;48.834;9.194;2022-12-07T15:30:37;9.53;;;6.70;;
3066;SDS011;1544;48.834;9.194;2022-12-07T15:33:13;11.83;;;7.73;;
3066;SDS011;1544;48.834;9.194;2022-12-07T15:35:48;10.17;;;7.03;;
3066;SDS011;1544;48.834;9.194;2022-12-07T15:38:23;9.77;;;7.10;;
3066;SDS011;1544;48.834;9.194;2022-12-07T15:41:20;7.80;;;6.73;;
3066;SDS011;1544;48.834;9.194;2022-12-07T15:43:56;9.27;;;7.50;;
3066;SDS011;1544;48.834;9.194;2022-12-07T15:46:49;11.17;;;7.47;;
3066;SDS011;1544;48.834;9.194;2022-12-07T15:49:24;9.13;;;6.40;;
3066;SDS011;1544;48.834;9.194;2022-12-07T15:52:00;9.70;;;6.80;;
3066;SDS011;1544;48.834;9.194;2022-12-07T15:54:35;8.33;;;7.03;;
3066;SDS011;1544;48.834;9.194;2022-12-07T15:57:10;11.30;;;7.47;;
3066;SDS011;1544;48.834;9.194;2022-12-07T15:59:45;10.83;;;7.40;;
3066;SDS011;1544;48.834;9.194;2022-12-07T16:02:20;7.83;;;6.57;;
3066;SDS011;1544;48.834;9.194;2022-12-07T16:04:57;9.23;;;6.27;;
3066;SDS011;1544;48.834;9.194;2022-12-07T16:07:32;10.67;;;7.03;;
3066;SDS011;1544;48.834;9.194;2022-12-07T16:10:07;11.40;;;7.70;;
3066;SDS011;1544;48.834;9.194;2022-12-07T16:12:42;12.40;;;7.20;;
3066;SDS011;1544;48.834;9.194;2022-12-07T16:15:18;12.57;;;7.37;;
3066;SDS011;1544;48.834;9.194;2022-12-07T16:17:57;10.70;;;6.97;;
3066;SDS011;1544;48.834;9.194;2022-12-07T16:20:32;11.90;;;6.53;;
3066;SDS011;1544;48.834;9.194;2022-12-07T16:23:07;12.57;;;8.67;;
3066;SDS011;1544;48.834;9.194;2022-12-07T16:25:42;13.43;;;6.87;;
3066;SDS011;1544;48.834;9.194;2022-12-07T16:28:17;14.27;;;8.50;;
3066;SDS011;1544;48.834;9.194;2022-12-07T16:30:59;14.47;;;8.57;;
3066;SDS011;1544;48.834;9.194;2022-12-07T16:33:41;11.50;;;7.90;;
3066;SDS011;1544;48.834;9.194;2022-12-07T16:36:18;11.70;;;8.27;;
3066;SDS011;1544;48.834;9.194;2022-12-07T16:39:13;12.77;;;8.30;;
3066;SDS011;1544;48.834;9.194;2022-12-07T16:41:48;14.03;;;8.70;;
3066;SDS011;1544;48.834;9.194;2022-12-07T16:44:23;11.97;;;8.00;;
3066;SDS011;1544;48.834;9.194;2022-12-07T16:46:59;12.20;;;8.80;;
3066;SDS011;1544;48.834;9.194;2022-12-07T16:49:35;9.97;;;7.77;;
3066;SDS011;1544;48.834;9.194;2022-12-07T16:52:10;10.77;;;8.07;;
3066;SDS011;1544;48.834;9.194;2022-12-07T16:54:54;13.10;;;8.17;;
3066;SDS011;1544;48.834;9.194;2022-12-07T16:57:30;12.40;;;8.80;;
3066;SDS011;1544;48.834;9.194;2022-12-07T17:00:06;11.50;;;7.47;;
3066;SDS011;1544;48.834;9.194;2022-12-07T17:02:42;13.37;;;8.60;;
3066;SDS011;1544;48.834;9.194;2022-12-07T17:05:17;13.10;;;9.20;;
3066;SDS011;1544;48.834;9.194;2022-12-07T17:07:52;13.83;;;9.43;;
3066;SDS011;1544;48.834;9.194;2022-12-07T17:10:27;13.87;;;8.87;;
3066;SDS011;1544;48.834;9.194;2022-12-07T17:13:05;10.40;;;7.37;;
3066;SDS011;1544;48.834;9.194;2022-12-07T17:16:06;13.20;;;8.33;;
3066;SDS011;1544;48.834;9.194;2022-12-07T17:18:41;10.77;;;7.60;;
3066;SDS011;1544;48.834;9.194;2022-12-07T17:21:16;12.50;;;7.80;;
3066;SDS011;1544;48.834;9.194;2022-12-07T17:23:51;11.10;;;7.10;;
3066;SDS011;1544;48.834;9.194;2022-12-07T17:26:27;9.70;;;6.77;;
3066;SDS011;1544;48.834;9.194;2022-12-07T17:29:09;8.40;;;5.93;;
3066;SDS011;1544;48.834;9.194;2022-12-07T17:31:47;10.23;;;7.00;;
3066;SDS011;1544;48.834;9.194;2022-12-07T17:34:25;9.20;;;6.73;;
3066;SDS011;1544;48.834;9.194;2022-12-07T17:37:00;9.20;;;7.87;;
3066;SDS011;1544;48.834;9.194;2022-12-07T17:39:35;10.80;;;6.27;;
3066;SDS011;1544;48.834;9.194;2022-12-07T17:42:10;10.00;;;6.83;;
3066;SDS011;1544;48.834;9.194;2022-12-07T17:45:03;8.20;;;6.33;;
3066;SDS011;1544;48.834;9.194;2022-12-07T17:47:41;8.67;;;6.00;;
3066;SDS011;1544;48.834;9.194;2022-12-07T17:50:16;9.90;;;6.60;;
3066;SDS011;1544;48.834;9.194;2022-12-07T17:53:11;10.47;;;6.83;;
3066;SDS011;1544;48.834;9.194;2022-12-07T17:55:46;10.00;;;7.07;;
3066;SDS011;1544;48.834;9.194;2022-12-07T17:58:41;9.57;;;7.10;;
3066;SDS011;1544;48.834;9.194;2022-12-07T18:01:16;10.70;;;8.30;;
3066;SDS011;1544;48.834;9.194;2022-12-07T18:03:57;13.10;;;8.23;;
3066;SDS011;1544;48.834;9.194;2022-12-07T18:06:33;11.20;;;7.93;;